Home > Products > Valid Products > TAF

000
FTUS43 KILX 291735
TAFCMI
TAF
KCMI 291735Z 2918/3018 33012G20KT P6SM SCT020 SCT250
      TEMPO 2919/2922 BKN020
     FM300100 28006KT P6SM SKC=



000
FTUS43 KILX 291735
TAFDEC
TAF
KDEC 291735Z 2918/3018 33010G18KT P6SM SCT020 SCT250
      TEMPO 2919/2922 BKN020
     FM300100 29006KT P6SM SKC=



000
FTUS43 KILX 291735
TAFBMI
TAF
KBMI 291735Z 2918/3018 33012G20KT P6SM SCT020 SCT250
     FM300100 28005KT P6SM SKC=



000
FTUS43 KILX 291735
TAFSPI
TAF
KSPI 291735Z 2918/3018 33010G18KT P6SM SCT020 SCT250
     FM300100 29004KT P6SM SKC=



000
FTUS43 KILX 291735
TAFPIA
TAF
KPIA 291735Z 2918/3018 33010G18KT P6SM SCT250
     FM300000 28004KT P6SM SKC=



000
FTUS43 KILX 291255 AAA
TAFSPI
TAF AMD
KSPI 291255Z 2913/3012 33008KT P6SM SCT010 BKN250
      TEMPO 2913/2914 BKN010
     FM291700 33010G18KT P6SM SCT250
     FM300100 29004KT P6SM SKC=



000
FTUS43 KILX 291255 AAA
TAFDEC
TAF AMD
KDEC 291255Z 2913/3012 VRB06KT P6SM VCTS SCT035CB BKN120
     FM291400 33008KT P6SM SCT010 BKN250
      TEMPO 2914/2915 BKN010
     FM291800 33010G18KT P6SM SCT250
     FM300100 29006KT P6SM SKC=



000
FTUS43 KILX 291255 AAA
TAFCMI
TAF AMD
KCMI 291255Z 2913/3012 VRB06KT 5SM BR VCTS SCT035CB BKN120
     FM291500 33008KT P6SM SCT010 BKN250
      TEMPO 2915/2916 BKN010
     FM291800 33012G20KT P6SM SCT250
     FM300100 28006KT P6SM SKC=



000
FTUS43 KILX 291255 AAA
TAFBMI
TAF AMD
KBMI 291255Z 2913/3012 33010KT P6SM SCT020 BKN250
      TEMPO 2913/2914 BKN020
     FM291700 33012G20KT P6SM SCT250
     FM300100 28005KT P6SM SKC=



000
FTUS43 KILX 291129
TAFCMI
TAF
KCMI 291129Z 2912/3012 VRB06KT P6SM VCTS SCT035CB BKN120
     FM291500 33008KT P6SM SCT010 BKN250
     FM291800 33012G20KT P6SM SCT250
     FM300100 28006KT P6SM SKC=



000
FTUS43 KILX 291129
TAFPIA
TAF
KPIA 291129Z 2912/3012 33007KT P6SM SCT009 BKN250
     FM291700 33010G18KT P6SM SCT250
     FM300000 28004KT P6SM SKC=



000
FTUS43 KILX 291129
TAFCMI
TAF
KCMI 291129Z 2912/3012 VRB06KT P6SM VCTS SCT035CB BKN120
     FM291500 33008KT P6SM SCT010 BKN250
     FM291800 33012G20KT P6SM SCT250
     FM300100 28006KT P6SM SKC=



000
FTUS43 KILX 291129
TAFSPI
TAF
KSPI 291129Z 2912/3012 VRB06KT P6SM VCTS SCT035CB BKN120
     FM291400 33008KT P6SM SCT010 BKN250
     FM291700 33010G18KT P6SM SCT250
     FM300100 29004KT P6SM SKC=



000
FTUS43 KILX 291129
TAFBMI
TAF
KBMI 291129Z 2912/3012 VRB06KT P6SM VCTS SCT035CB BKN120
     FM291400 33010KT P6SM SCT010 BKN250
     FM291700 33012G20KT P6SM SCT250
     FM300100 28005KT P6SM SKC=



000
FTUS43 KILX 291129
TAFDEC
TAF
KDEC 291129Z 2912/3012 VRB06KT P6SM VCTS SCT035CB BKN120
     FM291500 33008KT P6SM SCT010 BKN250
     FM291800 33010G18KT P6SM SCT250
     FM300100 29006KT P6SM SKC=



000
FTUS43 KILX 291129
TAFSPI
TAF
KSPI 291129Z 2912/3012 VRB06KT P6SM VCTS SCT035CB BKN120
     FM291400 33008KT P6SM SCT010 BKN250
     FM291700 33010G18KT P6SM SCT250
     FM300100 29004KT P6SM SKC=



000
FTUS43 KILX 291129
TAFBMI
TAF
KBMI 291129Z 2912/3012 VRB06KT P6SM VCTS SCT035CB BKN120
     FM291400 33010KT P6SM SCT010 BKN250
     FM291700 33012G20KT P6SM SCT250
     FM300100 28005KT P6SM SKC=



000
FTUS43 KILX 291129
TAFDEC
TAF
KDEC 291129Z 2912/3012 VRB06KT P6SM VCTS SCT035CB BKN120
     FM291500 33008KT P6SM SCT010 BKN250
     FM291800 33010G18KT P6SM SCT250
     FM300100 29006KT P6SM SKC=



000
FTUS43 KILX 291129
TAFPIA
TAF
KPIA 291129Z 2912/3012 33007KT P6SM SCT009 BKN250
     FM291700 33010G18KT P6SM SCT250
     FM300000 28004KT P6SM SKC=



000
FTUS43 KILX 290840 AAA
TAFCMI
TAF AMD
KCMI 290840Z 2909/3006 VRB06KT P6SM VCTS SCT035CB BKN120
      TEMPO 2909/2910 4SM TSRA BR OVC030CB
     FM291500 33006KT P6SM VCTS SCT050CB BKN150
     FM292000 33010G15KT P6SM SCT150
     FM300200 VRB04KT P6SM SKC=



000
FTUS43 KILX 290741 AAB
TAFBMI
TAF AMD
KBMI 290741Z 2908/3006 VRB06KT P6SM VCTS SCT035CB BKN120
      TEMPO 2908/2909 VRB20G30KT 1SM TSRA BR OVC007CB
     FM291400 33010KT P6SM VCTS SCT035CB BKN120
     FM291800 33012G18KT P6SM SCT150
     FM300200 VRB04KT P6SM SKC=



000
FTUS43 KILX 290741 AAB
TAFBMI
TAF AMD
KBMI 290741Z 2908/3006 VRB06KT P6SM VCTS SCT035CB BKN120
      TEMPO 2908/2909 VRB20G30KT 1SM TSRA BR OVC007CB
     FM291400 33010KT P6SM VCTS SCT035CB BKN120
     FM291800 33012G18KT P6SM SCT150
     FM300200 VRB04KT P6SM SKC=



000
FTUS43 KILX 290651 AAA
TAFBMI
TAF AMD
KBMI 290651Z 2907/3006 VRB06KT P6SM VCTS SCT035CB BKN120
      TEMPO 2907/2909 3SM TSRA BR OVC035CB
     FM291400 33010KT P6SM VCTS SCT035CB BKN120
     FM291800 33012G18KT P6SM SCT150
     FM300200 VRB04KT P6SM SKC=



000
FTUS43 KILX 290651 AAA
TAFBMI
TAF AMD
KBMI 290651Z 2907/3006 VRB06KT P6SM VCTS SCT035CB BKN120
      TEMPO 2907/2909 3SM TSRA BR OVC035CB
     FM291400 33010KT P6SM VCTS SCT035CB BKN120
     FM291800 33012G18KT P6SM SCT150
     FM300200 VRB04KT P6SM SKC=



000
FTUS43 KILX 290522
TAFDEC
TAF
KDEC 290522Z 2906/3006 15004KT P6SM BKN250
     FM290800 17004KT P6SM VCTS SCT035CB BKN120
     FM291500 33006KT P6SM VCTS SCT050CB BKN150
     FM292000 33010G15KT P6SM SCT150
     FM300200 VRB04KT P6SM SKC=



000
FTUS43 KILX 290522
TAFSPI
TAF
KSPI 290522Z 2906/3006 14005KT P6SM BKN250
     FM290700 17004KT P6SM VCTS SCT035CB BKN120
     FM291400 33006KT P6SM VCTS SCT050CB BKN150
     FM291800 33010G15KT P6SM SCT150
     FM300000 VRB04KT P6SM SKC=



000
FTUS43 KILX 290522
TAFPIA
TAF
KPIA 290522Z 2906/3006 17005KT P6SM VCTS SCT035CB BKN120
      TEMPO 2906/2908 4SM TSRA BKN030CB
     FM291300 34007KT P6SM VCTS SCT035CB BKN120
     FM291800 33010G15KT P6SM SCT150
     FM300000 VRB04KT P6SM SKC=



000
FTUS43 KILX 290522
TAFBMI
TAF
KBMI 290522Z 2906/3006 16006KT P6SM BKN250
     FM290700 16005KT P6SM VCTS SCT035CB BKN120
     FM291400 33010KT P6SM VCTS SCT035CB BKN120
     FM291800 33012G18KT P6SM SCT150
     FM300200 VRB04KT P6SM SKC=



000
FTUS43 KILX 290522
TAFCMI
TAF
KCMI 290522Z 2906/3006 VRB03KT P6SM BKN250
     FM290800 17004KT P6SM VCTS SCT035CB BKN120
     FM291500 33006KT P6SM VCTS SCT050CB BKN150
     FM292000 33010G15KT P6SM SCT150
     FM300200 VRB04KT P6SM SKC=



000
FTUS43 KILX 290522
TAFSPI
TAF
KSPI 290522Z 2906/3006 14005KT P6SM BKN250
     FM290700 17004KT P6SM VCTS SCT035CB BKN120
     FM291400 33006KT P6SM VCTS SCT050CB BKN150
     FM291800 33010G15KT P6SM SCT150
     FM300000 VRB04KT P6SM SKC=



000
FTUS43 KILX 290522
TAFCMI
TAF
KCMI 290522Z 2906/3006 VRB03KT P6SM BKN250
     FM290800 17004KT P6SM VCTS SCT035CB BKN120
     FM291500 33006KT P6SM VCTS SCT050CB BKN150
     FM292000 33010G15KT P6SM SCT150
     FM300200 VRB04KT P6SM SKC=



000
FTUS43 KILX 290522
TAFBMI
TAF
KBMI 290522Z 2906/3006 16006KT P6SM BKN250
     FM290700 16005KT P6SM VCTS SCT035CB BKN120
     FM291400 33010KT P6SM VCTS SCT035CB BKN120
     FM291800 33012G18KT P6SM SCT150
     FM300200 VRB04KT P6SM SKC=



000
FTUS43 KILX 290522
TAFDEC
TAF
KDEC 290522Z 2906/3006 15004KT P6SM BKN250
     FM290800 17004KT P6SM VCTS SCT035CB BKN120
     FM291500 33006KT P6SM VCTS SCT050CB BKN150
     FM292000 33010G15KT P6SM SCT150
     FM300200 VRB04KT P6SM SKC=



000
FTUS43 KILX 290522
TAFPIA
TAF
KPIA 290522Z 2906/3006 17005KT P6SM VCTS SCT035CB BKN120
      TEMPO 2906/2908 4SM TSRA BKN030CB
     FM291300 34007KT P6SM VCTS SCT035CB BKN120
     FM291800 33010G15KT P6SM SCT150
     FM300000 VRB04KT P6SM SKC=



000
FTUS43 KILX 290451 AAB
TAFPIA
TAF AMD
KPIA 290451Z 2905/2924 17005KT P6SM VCTS SCT035CB BKN120
      TEMPO 2906/2908 4SM TSRA BKN030CB
     FM291300 34007KT P6SM VCTS SCT035CB BKN120
     FM291800 33010G16KT P6SM SCT150=



000
FTUS43 KILX 290247 AAA
TAFDEC
TAF AMD
KDEC 290247Z 2903/2924 15004KT P6SM BKN250
     FM290700 17004KT P6SM VCTS SCT035CB BKN120
     FM291500 33006KT P6SM VCTS SCT050CB BKN150
     FM292000 33010G16KT P6SM SCT150=



000
FTUS43 KILX 290247 AAA
TAFDEC
TAF AMD
KDEC 290247Z 2903/2924 15004KT P6SM BKN250
     FM290700 17004KT P6SM VCTS SCT035CB BKN120
     FM291500 33006KT P6SM VCTS SCT050CB BKN150
     FM292000 33010G16KT P6SM SCT150=



000
FTUS43 KILX 290247 AAA
TAFCMI
TAF AMD
KCMI 290247Z 2903/2924 VRB04KT P6SM BKN250
     FM290700 17004KT P6SM VCTS SCT035CB BKN120
     FM291500 33006KT P6SM VCTS SCT050CB BKN150
     FM292000 33010G16KT P6SM SCT150=



000
FTUS43 KILX 290246 AAA
TAFBMI
TAF AMD
KBMI 290246Z 2903/2924 13004KT P6SM BKN250
     FM290600 16005KT P6SM VCTS SCT035CB BKN120
     FM291400 33010KT P6SM VCTS SCT035CB BKN120
     FM291800 33012G18KT P6SM SCT150=



000
FTUS43 KILX 290246 AAA
TAFBMI
TAF AMD
KBMI 290246Z 2903/2924 13004KT P6SM BKN250
     FM290600 16005KT P6SM VCTS SCT035CB BKN120
     FM291400 33010KT P6SM VCTS SCT035CB BKN120
     FM291800 33012G18KT P6SM SCT150=



000
FTUS43 KILX 290244 AAA
TAFSPI
TAF AMD
KSPI 290244Z 2903/2924 14005KT P6SM BKN250
     FM290600 17004KT P6SM VCTS SCT035CB BKN120
     FM291400 33006KT P6SM VCTS SCT050CB BKN150
     FM291900 33010G16KT P6SM SCT150=



000
FTUS43 KILX 290244 AAA
TAFSPI
TAF AMD
KSPI 290244Z 2903/2924 14005KT P6SM BKN250
     FM290600 17004KT P6SM VCTS SCT035CB BKN120
     FM291400 33006KT P6SM VCTS SCT050CB BKN150
     FM291900 33010G16KT P6SM SCT150=



000
FTUS43 KILX 290243 AAA
TAFPIA
TAF AMD
KPIA 290243Z 2903/2924 14005KT P6SM BKN250
     FM290500 17005KT P6SM VCTS SCT035CB BKN120
     FM291300 34007KT P6SM VCTS SCT035CB BKN120
     FM291800 33010G16KT P6SM SCT150=



000
FTUS43 KILX 282340
TAFCMI
TAF
KCMI 282340Z 2900/2924 16004KT P6SM BKN250
     FM290600 18004KT P6SM VCTS SCT035CB BKN120
     FM291500 33006KT P6SM VCTS SCT050CB BKN150
     FM292000 33010G16KT P6SM SCT150=



000
FTUS43 KILX 282340
TAFDEC
TAF
KDEC 282340Z 2900/2924 16005KT P6SM BKN250
     FM290600 18003KT P6SM VCTS SCT035CB BKN120
     FM291500 33006KT P6SM VCTS SCT050CB BKN150
     FM292000 33010G16KT P6SM SCT150=



000
FTUS43 KILX 282340
TAFPIA
TAF
KPIA 282340Z 2900/2924 17006KT P6SM BKN250
     FM290300 19005KT P6SM VCTS SCT035CB BKN120
     FM291300 34007KT P6SM VCTS SCT035CB BKN120
     FM291800 33010G16KT P6SM SCT150=



000
FTUS43 KILX 282340
TAFBMI
TAF
KBMI 282340Z 2900/2924 18006KT P6SM BKN250
     FM290400 17005KT P6SM VCTS SCT035CB BKN120
     FM291400 33010KT P6SM VCTS SCT035CB BKN120
     FM291800 33012G18KT P6SM SCT150=



000
FTUS43 KILX 282340
TAFSPI
TAF
KSPI 282340Z 2900/2924 11008KT P6SM SCT040 SCT250
     FM290400 18004KT P6SM VCTS SCT035CB BKN120
     FM291400 33006KT P6SM VCTS SCT050CB BKN150
     FM291900 33010G16KT P6SM SCT150=



000
FTUS43 KILX 282052 AAA
TAFDEC
TAF AMD
KDEC 282052Z 2821/2918 16005KT P6SM VCTS SCT025CB BKN250
      TEMPO 2821/2823 6SM -TSRA BKN020CB
     FM290600 18003KT P6SM VCSH SCT035 BKN120
     FM291500 33006KT P6SM VCTS SCT050CB BKN150=



000
FTUS43 KILX 282052 AAA
TAFDEC
TAF AMD
KDEC 282052Z 2821/2918 16005KT P6SM VCTS SCT025CB BKN250
      TEMPO 2821/2823 6SM -TSRA BKN020CB
     FM290600 18003KT P6SM VCSH SCT035 BKN120
     FM291500 33006KT P6SM VCTS SCT050CB BKN150=



000
FTUS43 KILX 282011 AAA
TAFCMI
TAF AMD
KCMI 282011Z 2820/2918 16004KT P6SM VCTS SCT025CB BKN250
      TEMPO 2820/2822 6SM -TSRA BKN015CB
     FM290700 18004KT P6SM VCSH SCT035 BKN120
     FM291500 33006KT P6SM VCTS SCT050CB BKN150=



000
FTUS43 KILX 281842 AAA
TAFBMI
TAF AMD
KBMI 281842Z 2819/2918 12006KT P6SM VCTS SCT025CB
      TEMPO 2819/2820 5SM -TSRA BKN020CB
     FM290500 17005KT P6SM VCSH SCT035 BKN120
     FM291400 33010KT P6SM VCTS SCT035CB BKN120=



000
FTUS43 KILX 281745
TAFBMI
TAF
KBMI 281745Z 2818/2918 12006KT P6SM VCSH SCT025
      TEMPO 2818/2820 6SM -RA
     FM290500 17005KT P6SM VCSH SCT035 BKN120
     FM291400 33010KT P6SM VCTS SCT035CB BKN120=



000
FTUS43 KILX 281745
TAFSPI
TAF
KSPI 281745Z 2818/2918 18008KT P6SM SCT035
     FM290400 18004KT P6SM VCSH SCT035 BKN120
     FM291400 33006KT P6SM VCTS SCT050CB BKN150=



000
FTUS43 KILX 281745
TAFCMI
TAF
KCMI 281745Z 2818/2918 16004KT P6SM VCSH SCT025 BKN250
      TEMPO 2819/2822 6SM -RA
     FM290700 18004KT P6SM VCSH SCT035 BKN120
     FM291500 33006KT P6SM VCTS SCT050CB BKN150=



000
FTUS43 KILX 281745
TAFPIA
TAF
KPIA 281745Z 2818/2918 17006KT P6SM VCSH SCT025
     FM290300 19005KT P6SM VCSH SCT035 BKN120
     FM291000 19007KT P6SM VCTS SCT035CB BKN120
     FM291300 34007KT P6SM VCTS SCT035CB BKN120=



000
FTUS43 KILX 281745
TAFDEC
TAF
KDEC 281745Z 2818/2918 16005KT P6SM SCT025 BKN250
     FM290600 18003KT P6SM VCSH SCT035 BKN120
     FM291500 33006KT P6SM VCTS SCT050CB BKN150=



000
FTUS43 KILX 281135
TAFPIA
TAF
KPIA 281135Z 2812/2912 08003KT 5SM BR SCT250
      TEMPO 2812/2813 2SM BR
     FM281400 14006KT P6SM SCT025
     FM290300 19005KT P6SM VCTS SCT035CB BKN120=



000
FTUS43 KILX 281135
TAFDEC
TAF
KDEC 281135Z 2812/2912 10003KT 4SM BR BKN250
     FM281400 16005KT P6SM SCT025 BKN250
     FM290600 18003KT P6SM VCTS SCT035CB BKN120=



000
FTUS43 KILX 281135
TAFCMI
TAF
KCMI 281135Z 2812/2912 11003KT 3SM BR BKN250
      TEMPO 2812/2814 2SM BR
     FM281400 16004KT P6SM SCT025 BKN250
     FM290600 17004KT 5SM BR SCT035 BKN120
     FM290900 18004KT 4SM BR VCTS SCT035CB BKN120=



000
FTUS43 KILX 281135
TAFBMI
TAF
KBMI 281135Z 2812/2912 08005KT 4SM BR SCT250
     FM281400 12006KT P6SM SCT025
     FM290500 17005KT P6SM VCTS SCT035CB BKN120=



000
FTUS43 KILX 281135
TAFSPI
TAF
KSPI 281135Z 2812/2912 11003KT 6SM BR BKN250
     FM281400 16005KT P6SM VCTS SCT025CB BKN250
     FM281700 18008KT P6SM SCT035
     FM290400 18004KT P6SM VCTS SCT035CB BKN120=



000
FTUS43 KILX 281135
TAFBMI
TAF
KBMI 281135Z 2812/2912 08005KT 4SM BR SCT250
     FM281400 12006KT P6SM SCT025
     FM290500 17005KT P6SM VCTS SCT035CB BKN120=



000
FTUS43 KILX 281135
TAFCMI
TAF
KCMI 281135Z 2812/2912 11003KT 3SM BR BKN250
      TEMPO 2812/2814 2SM BR
     FM281400 16004KT P6SM SCT025 BKN250
     FM290600 17004KT 5SM BR SCT035 BKN120
     FM290900 18004KT 4SM BR VCTS SCT035CB BKN120=



000
FTUS43 KILX 281135
TAFSPI
TAF
KSPI 281135Z 2812/2912 11003KT 6SM BR BKN250
     FM281400 16005KT P6SM VCTS SCT025CB BKN250
     FM281700 18008KT P6SM SCT035
     FM290400 18004KT P6SM VCTS SCT035CB BKN120=



000
FTUS43 KILX 281135
TAFPIA
TAF
KPIA 281135Z 2812/2912 08003KT 5SM BR SCT250
      TEMPO 2812/2813 2SM BR
     FM281400 14006KT P6SM SCT025
     FM290300 19005KT P6SM VCTS SCT035CB BKN120=



000
FTUS43 KILX 281135
TAFDEC
TAF
KDEC 281135Z 2812/2912 10003KT 4SM BR BKN250
     FM281400 16005KT P6SM SCT025 BKN250
     FM290600 18003KT P6SM VCTS SCT035CB BKN120=



000
FTUS43 KILX 281007 AAA
TAFSPI
TAF AMD
KSPI 281007Z 2810/2906 10003KT 6SM BR BKN250
     FM281200 10005KT P6SM VCTS SCT025CB
     FM281700 18008KT P6SM SCT035=



000
FTUS43 KILX 281007 AAA
TAFSPI
TAF AMD
KSPI 281007Z 2810/2906 10003KT 6SM BR BKN250
     FM281200 10005KT P6SM VCTS SCT025CB
     FM281700 18008KT P6SM SCT035=



000
FTUS43 KILX 280531
TAFDEC
TAF
KDEC 280531Z 2806/2906 10005KT P6SM OVC250
     FM280800 10003KT 3SM BR SCT250
     FM281400 12006KT P6SM SCT025
     FM281800 18008KT P6SM SCT035=



000
FTUS43 KILX 280531
TAFSPI
TAF
KSPI 280531Z 2806/2906 10005KT P6SM OVC250
     FM280800 10003KT 2SM BR SCT250
     FM281200 10005KT P6SM VCTS SCT025CB
     FM281700 18008KT P6SM SCT035=



000
FTUS43 KILX 280531
TAFPIA
TAF
KPIA 280531Z 2806/2906 08005KT P6SM OVC250
     FM280900 08003KT 2SM BR SCT250
     FM281400 12006KT P6SM SCT025
     FM281900 18006KT P6SM SCT035
     FM290300 18005KT P6SM VCTS SCT035CB BKN120=



000
FTUS43 KILX 280531
TAFCMI
TAF
KCMI 280531Z 2806/2906 08005KT P6SM OVC250
     FM280800 08003KT 3SM BR SCT250
     FM281400 12006KT P6SM SCT025
     FM281800 18008KT P6SM SCT035=



000
FTUS43 KILX 280531
TAFBMI
TAF
KBMI 280531Z 2806/2906 08005KT P6SM OVC250
     FM280900 08005KT 3SM BR SCT250
     FM281400 12006KT P6SM SCT025
     FM281900 18008KT P6SM SCT035=



000
FTUS43 KILX 272341
TAFSPI
TAF
KSPI 272341Z 2800/2824 08005KT P6SM SCT035 OVC250
      TEMPO 2802/2804 6SM -SHRA BR BKN035
     FM280800 08003KT 3SM BR BKN250
     FM281500 13008KT P6SM SCT035=



000
FTUS43 KILX 272341
TAFCMI
TAF
KCMI 272341Z 2800/2824 06005KT P6SM SCT035 BKN250
     FM280800 08003KT 3SM BR BKN250
     FM281500 13008KT P6SM SCT035=



000
FTUS43 KILX 272341
TAFBMI
TAF
KBMI 272341Z 2800/2824 08008KT P6SM SCT025 OVC250
     FM280800 08005KT 3SM BR BKN250
     FM281500 10006KT P6SM SCT025
     FM281800 14008KT P6SM SCT025=



000
FTUS43 KILX 272341
TAFCMI
TAF
KCMI 272341Z 2800/2824 06005KT P6SM SCT035 BKN250
     FM280800 08003KT 3SM BR BKN250
     FM281500 13008KT P6SM SCT035=



000
FTUS43 KILX 272341
TAFPIA
TAF
KPIA 272341Z 2800/2824 08005KT P6SM SCT035 OVC250
      TEMPO 2802/2804 6SM -SHRA BR BKN035
     FM280800 08003KT 3SM BR BKN250
     FM281500 13008KT P6SM SCT035=



000
FTUS43 KILX 272341
TAFBMI
TAF
KBMI 272341Z 2800/2824 08008KT P6SM SCT025 OVC250
     FM280800 08005KT 3SM BR BKN250
     FM281500 10006KT P6SM SCT025
     FM281800 14008KT P6SM SCT025=



000
FTUS43 KILX 272341
TAFDEC
TAF
KDEC 272341Z 2800/2824 05005KT P6SM SCT035 OVC250
     FM280800 08003KT 3SM BR BKN250
     FM281500 13008KT P6SM SCT035=



000
FTUS43 KILX 272341
TAFSPI
TAF
KSPI 272341Z 2800/2824 08005KT P6SM SCT035 OVC250
      TEMPO 2802/2804 6SM -SHRA BR BKN035
     FM280800 08003KT 3SM BR BKN250
     FM281500 13008KT P6SM SCT035=



000
FTUS43 KILX 272341
TAFPIA
TAF
KPIA 272341Z 2800/2824 08005KT P6SM SCT035 OVC250
      TEMPO 2802/2804 6SM -SHRA BR BKN035
     FM280800 08003KT 3SM BR BKN250
     FM281500 13008KT P6SM SCT035=



000
FTUS43 KILX 272341
TAFDEC
TAF
KDEC 272341Z 2800/2824 05005KT P6SM SCT035 OVC250
     FM280800 08003KT 3SM BR BKN250
     FM281500 13008KT P6SM SCT035=



000
FTUS43 KILX 272131 AAA
TAFCMI
TAF AMD
KCMI 272131Z 2722/2818 10005KT P6SM SCT025
     FM280000 07006KT P6SM SCT040 BKN250
     FM280800 08005KT 3SM BR SCT002
      TEMPO 2808/2812 1/4SM FG OVC002
     FM281500 13006KT P6SM SCT010 BKN150=



000
FTUS43 KILX 272131 AAA
TAFCMI
TAF AMD
KCMI 272131Z 2722/2818 10005KT P6SM SCT025
     FM280000 07006KT P6SM SCT040 BKN250
     FM280800 08005KT 3SM BR SCT002
      TEMPO 2808/2812 1/4SM FG OVC002
     FM281500 13006KT P6SM SCT010 BKN150=



000
FTUS43 KILX 272131 AAA
TAFDEC
TAF AMD
KDEC 272131Z 2722/2818 08006KT P6SM SCT025
     FM280000 08005KT P6SM SCT040 BKN250
     FM280800 08004KT 5SM BR SCT015
      TEMPO 2808/2812 1/4SM FG OVC002
     FM281500 13006KT P6SM SCT010 BKN150=



000
FTUS43 KILX 272131 AAA
TAFDEC
TAF AMD
KDEC 272131Z 2722/2818 08006KT P6SM SCT025
     FM280000 08005KT P6SM SCT040 BKN250
     FM280800 08004KT 5SM BR SCT015
      TEMPO 2808/2812 1/4SM FG OVC002
     FM281500 13006KT P6SM SCT010 BKN150=



000
FTUS43 KILX 272130 AAA
TAFSPI
TAF AMD
KSPI 272130Z 2722/2818 08006KT P6SM SCT035 BKN250
     FM280800 08004KT 5SM BR SCT015
      TEMPO 2808/2812 1/4SM FG OVC002
     FM281500 13006KT P6SM SCT010 BKN150=



000
FTUS43 KILX 272130 AAA
TAFSPI
TAF AMD
KSPI 272130Z 2722/2818 08006KT P6SM SCT035 BKN250
     FM280800 08004KT 5SM BR SCT015
      TEMPO 2808/2812 1/4SM FG OVC002
     FM281500 13006KT P6SM SCT010 BKN150=



000
FTUS43 KILX 272129 AAA
TAFBMI
TAF AMD
KBMI 272129Z 2721/2818 08008KT P6SM SCT025 BKN250
     FM280800 08005KT 3SM BR SCT002
      TEMPO 2808/2812 1/4SM FG OVC002
     FM281500 13006KT P6SM SCT010 BKN150=



000
FTUS43 KILX 272129 AAA
TAFBMI
TAF AMD
KBMI 272129Z 2721/2818 08008KT P6SM SCT025 BKN250
     FM280800 08005KT 3SM BR SCT002
      TEMPO 2808/2812 1/4SM FG OVC002
     FM281500 13006KT P6SM SCT010 BKN150=



000
FTUS43 KILX 272129 AAA
TAFPIA
TAF AMD
KPIA 272129Z 2721/2818 08003KT P6SM SCT035 BKN250
     FM280800 08004KT 3SM BR SCT002
      TEMPO 2808/2812 1/4SM FG OVC002
     FM281500 13006KT P6SM SCT010 BKN150=



000
FTUS43 KILX 272129 AAA
TAFPIA
TAF AMD
KPIA 272129Z 2721/2818 08003KT P6SM SCT035 BKN250
     FM280800 08004KT 3SM BR SCT002
      TEMPO 2808/2812 1/4SM FG OVC002
     FM281500 13006KT P6SM SCT010 BKN150=



000
FTUS43 KILX 271728
TAFCMI
TAF
KCMI 271728Z 2718/2818 07008KT P6SM BKN015
     FM280000 07006KT P6SM SCT040 BKN250
     FM280800 08005KT 3SM BR SCT002
      TEMPO 2808/2812 1/4SM FG OVC002
     FM281500 13006KT P6SM SCT010 BKN150=



000
FTUS43 KILX 271728
TAFPIA
TAF
KPIA 271728Z 2718/2818 VRB06KT P6SM BKN015
     FM280000 08005KT P6SM SCT040 BKN250
     FM280800 08004KT 3SM BR SCT002
      TEMPO 2808/2812 1/4SM FG OVC002
     FM281500 13006KT P6SM SCT010 BKN150=



000
FTUS43 KILX 271728
TAFDEC
TAF
KDEC 271728Z 2718/2818 08006KT P6SM BKN025
      TEMPO 2718/2722 SCT020
     FM280000 08005KT P6SM SCT040 BKN250
     FM280800 08004KT 5SM BR SCT015
      TEMPO 2808/2812 1/4SM FG OVC002
     FM281500 13006KT P6SM SCT010 BKN150=



000
FTUS43 KILX 271728
TAFBMI
TAF
KBMI 271728Z 2718/2818 08008KT P6SM BKN015
     FM280000 08006KT P6SM SCT040 BKN250
     FM280800 08005KT 3SM BR SCT002
      TEMPO 2808/2812 1/4SM FG OVC002
     FM281500 13006KT P6SM SCT010 BKN150=



000
FTUS43 KILX 271728
TAFSPI
TAF
KSPI 271728Z 2718/2818 08006KT P6SM BKN030
     FM280000 08005KT P6SM SCT040 BKN250
     FM280800 08004KT 5SM BR SCT015
      TEMPO 2808/2812 1/4SM FG OVC002
     FM281500 13006KT P6SM SCT010 BKN150=



000
FTUS43 KILX 271728
TAFSPI
TAF
KSPI 271728Z 2718/2818 08006KT P6SM BKN030
     FM280000 08005KT P6SM SCT040 BKN250
     FM280800 08004KT 5SM BR SCT015
      TEMPO 2808/2812 1/4SM FG OVC002
     FM281500 13006KT P6SM SCT010 BKN150=



000
FTUS43 KILX 271728
TAFBMI
TAF
KBMI 271728Z 2718/2818 08008KT P6SM BKN015
     FM280000 08006KT P6SM SCT040 BKN250
     FM280800 08005KT 3SM BR SCT002
      TEMPO 2808/2812 1/4SM FG OVC002
     FM281500 13006KT P6SM SCT010 BKN150=



000
FTUS43 KILX 271728
TAFCMI
TAF
KCMI 271728Z 2718/2818 07008KT P6SM BKN015
     FM280000 07006KT P6SM SCT040 BKN250
     FM280800 08005KT 3SM BR SCT002
      TEMPO 2808/2812 1/4SM FG OVC002
     FM281500 13006KT P6SM SCT010 BKN150=



000
FTUS43 KILX 271728
TAFDEC
TAF
KDEC 271728Z 2718/2818 08006KT P6SM BKN025
      TEMPO 2718/2722 SCT020
     FM280000 08005KT P6SM SCT040 BKN250
     FM280800 08004KT 5SM BR SCT015
      TEMPO 2808/2812 1/4SM FG OVC002
     FM281500 13006KT P6SM SCT010 BKN150=



000
FTUS43 KILX 271728
TAFPIA
TAF
KPIA 271728Z 2718/2818 VRB06KT P6SM BKN015
     FM280000 08005KT P6SM SCT040 BKN250
     FM280800 08004KT 3SM BR SCT002
      TEMPO 2808/2812 1/4SM FG OVC002
     FM281500 13006KT P6SM SCT010 BKN150=



000
FTUS43 KILX 271507 AAB
TAFPIA
TAF AMD
KPIA 271507Z 2715/2812 VRB05KT 4SM BR BKN007
     FM271600 VRB06KT P6SM BKN035
     FM280000 08005KT P6SM SCT040 BKN250
     FM280800 08004KT 3SM BR SCT002=



000
FTUS43 KILX 271507 AAB
TAFPIA
TAF AMD
KPIA 271507Z 2715/2812 VRB05KT 4SM BR BKN007
     FM271600 VRB06KT P6SM BKN035
     FM280000 08005KT P6SM SCT040 BKN250
     FM280800 08004KT 3SM BR SCT002=



000
FTUS43 KILX 271506 AAB
TAFBMI
TAF AMD
KBMI 271506Z 2715/2812 VRB06KT P6SM SCT003
      TEMPO 2715/2716 6SM BR OVC003
     FM271600 08008KT P6SM BKN035
     FM280000 08006KT P6SM SCT040 BKN250
     FM280800 08005KT 3SM BR SCT002=



000
FTUS43 KILX 271504 AAA
TAFCMI
TAF AMD
KCMI 271504Z 2715/2812 VRB06KT 4SM BR OVC002
     FM271600 07008KT P6SM BKN035
     FM280000 07006KT P6SM SCT040 BKN250
     FM280800 08005KT 3SM BR SCT002=



000
FTUS43 KILX 271404 AAA
TAFDEC
TAF AMD
KDEC 271404Z 2714/2812 VRB05KT P6SM SCT020
      TEMPO 2714/2715 3SM BR OVC002
     FM271500 08006KT P6SM BKN035
     FM280000 08005KT P6SM SCT040 BKN250
     FM280800 08004KT 5SM BR SCT015=



000
FTUS43 KILX 271403 AAA
TAFPIA
TAF AMD
KPIA 271403Z 2714/2812 VRB05KT 2SM BR SCT002
      TEMPO 2714/2715 1SM BR OVC002
     FM271500 VRB06KT P6SM BKN035
     FM280000 08005KT P6SM SCT040 BKN250
     FM280800 08004KT 3SM BR SCT002=



000
FTUS43 KILX 271402 AAA
TAFBMI
TAF AMD
KBMI 271402Z 2714/2812 VRB06KT 2SM BR SCT002
      TEMPO 2714/2715 1/2SM FG OVC002
     FM271500 08008KT P6SM BKN035
     FM280000 08006KT P6SM SCT040 BKN250
     FM280800 08005KT 3SM BR SCT002=



000
FTUS43 KILX 271121
TAFCMI
TAF
KCMI 271121Z 2712/2812 VRB06KT 2SM BR SCT001
      TEMPO 2712/2714 1/4SM FG OVC001
     FM271500 07008KT P6SM BKN035
     FM280000 07006KT P6SM SCT040 BKN250
     FM280800 08005KT 3SM BR SCT002=



000
FTUS43 KILX 271121
TAFPIA
TAF
KPIA 271121Z 2712/2812 VRB05KT 2SM BR SCT002
      TEMPO 2712/2714 1/4SM FG OVC002
     FM271500 VRB06KT P6SM BKN035
     FM280000 08005KT P6SM SCT040 BKN250
     FM280800 08004KT 3SM BR SCT002=



000
FTUS43 KILX 271121
TAFSPI
TAF
KSPI 271121Z 2712/2812 VRB05KT P6SM SCT015
      TEMPO 2712/2714 3SM BR OVC015
     FM271400 08006KT P6SM BKN035
     FM280000 08005KT P6SM SCT040 BKN250
     FM280800 08004KT 5SM BR SCT015=



000
FTUS43 KILX 271121
TAFDEC
TAF
KDEC 271121Z 2712/2812 VRB05KT P6SM SCT020
      TEMPO 2712/2714 3SM BR OVC020
     FM271400 08006KT P6SM BKN035
     FM280000 08005KT P6SM SCT040 BKN250
     FM280800 08004KT 5SM BR SCT015=



000
FTUS43 KILX 271121
TAFBMI
TAF
KBMI 271121Z 2712/2812 VRB06KT 2SM BR SCT002
      TEMPO 2712/2714 1/4SM FG OVC002
     FM271500 08008KT P6SM BKN035
     FM280000 08006KT P6SM SCT040 BKN250
     FM280800 08005KT 3SM BR SCT002=



000
FTUS43 KILX 270836 AAA
TAFDEC
TAF AMD
KDEC 270836Z 2709/2806 VRB03KT 3SM BR SCT025
      TEMPO 2709/2712 1SM BR BKN025
     FM271400 10007KT P6SM SCT040
     FM272000 11006KT P6SM BKN040=



000
FTUS43 KILX 270836 AAA
TAFSPI
TAF AMD
KSPI 270836Z 2709/2806 VRB03KT P6SM SCT250
     FM271000 VRB03KT 4SM BR SCT015
      TEMPO 2710/2713 2SM BR
     FM271400 10007KT P6SM SCT050=



000
FTUS43 KILX 270836 AAA
TAFBMI
TAF AMD
KBMI 270836Z 2709/2806 VRB03KT 3SM BR SCT001
      TEMPO 2709/2713 1/4SM FG OVC001
     FM271400 10007KT P6SM SCT010
     FM272000 09007KT P6SM BKN040=



000
FTUS43 KILX 270836 AAA
TAFPIA
TAF AMD
KPIA 270836Z 2709/2806 VRB03KT 2SM BR SCT002
      TEMPO 2709/2713 1/4SM FG OVC002
     FM271400 10007KT P6SM SCT050=



000
FTUS43 KILX 270836 AAA
TAFCMI
TAF AMD
KCMI 270836Z 2709/2806 VRB03KT 3SM BR SCT002
      TEMPO 2709/2713 1/2SM FG OVC002
     FM271400 10007KT P6SM SCT040
     FM272000 10006KT P6SM BKN040=



000
FTUS43 KILX 270528
TAFCMI
TAF
KCMI 270528Z 2706/2806 10004KT P6SM SCT250
     FM270900 VRB03KT 2SM BR SCT015
      TEMPO 2709/2712 1/2SM FG SCT003
     FM271400 10007KT P6SM SCT040
     FM272000 10006KT P6SM BKN040=



000
FTUS43 KILX 270528
TAFBMI
TAF
KBMI 270528Z 2706/2806 11005KT 3SM BR SCT001
      TEMPO 2708/2712 1/4SM FG
     FM271400 10007KT P6SM SCT010
     FM272000 09007KT P6SM BKN040=



000
FTUS43 KILX 270528
TAFPIA
TAF
KPIA 270528Z 2706/2806 08003KT P6SM SCT250
     FM270900 VRB03KT 2SM BR SCT015
      TEMPO 2709/2712 3/4SM BR SCT001
     FM271400 10007KT P6SM SCT050=



000
FTUS43 KILX 270528
TAFSPI
TAF
KSPI 270528Z 2706/2806 07004KT P6SM SCT250
     FM270900 VRB03KT 2SM BR SCT015
      TEMPO 2709/2712 1SM BR
     FM271400 10007KT P6SM SCT050=



000
FTUS43 KILX 270528
TAFDEC
TAF
KDEC 270528Z 2706/2806 VRB04KT P6SM SCT250
     FM270900 VRB03KT 2SM BR SCT015
      TEMPO 2709/2712 1/2SM FG SCT003
     FM271400 10007KT P6SM SCT040
     FM272000 11006KT P6SM BKN040=



000
FTUS43 KILX 270528
TAFDEC
TAF
KDEC 270528Z 2706/2806 VRB04KT P6SM SCT250
     FM270900 VRB03KT 2SM BR SCT015
      TEMPO 2709/2712 1/2SM FG SCT003
     FM271400 10007KT P6SM SCT040
     FM272000 11006KT P6SM BKN040=



000
FTUS43 KILX 270528
TAFCMI
TAF
KCMI 270528Z 2706/2806 10004KT P6SM SCT250
     FM270900 VRB03KT 2SM BR SCT015
      TEMPO 2709/2712 1/2SM FG SCT003
     FM271400 10007KT P6SM SCT040
     FM272000 10006KT P6SM BKN040=



000
FTUS43 KILX 270456 AAF
TAFBMI
TAF AMD
KBMI 270456Z 2705/2724 14005KT 3SM BR SCT001
      TEMPO 2710/2712 1/2SM FG
     FM271400 16007KT P6SM SCT040=



000
FTUS43 KILX 270404 AAE
TAFBMI
TAF AMD
KBMI 270404Z 2704/2724 11005KT 1/4SM FG OVC001
      TEMPO 2711/2713 2SM BR
     FM271400 16007KT P6SM SCT040=



000
FTUS43 KILX 270357 AAD
TAFBMI
TAF AMD
KBMI 270357Z 2704/2724 11006KT 1/2SM FG BKN001
      TEMPO 2708/2712 1/4SM FG
     FM271400 16007KT P6SM SCT040=



000
FTUS43 KILX 270346 AAC
TAFBMI
TAF AMD
KBMI 270346Z 2704/2724 13006KT 2SM BR BKN003
      TEMPO 2708/2712 2SM BR
     FM271400 16007KT P6SM SCT040=



000
FTUS43 KILX 270121 AAB
TAFBMI
TAF AMD
KBMI 270121Z 2701/2724 08008KT P6SM FEW045
     FM270300 VRB05KT P6SM SCT040
      TEMPO 2708/2712 2SM BR
     FM271400 16007KT P6SM SCT040=



000
FTUS43 KILX 270030 AAA
TAFBMI
TAF AMD
KBMI 270030Z 2701/2724 05012KT P6SM FEW025 BKN045
     FM270300 VRB05KT P6SM SCT040
      TEMPO 2708/2712 2SM BR
     FM271400 16007KT P6SM SCT040=



000
FTUS43 KILX 270030 AAA
TAFBMI
TAF AMD
KBMI 270030Z 2701/2724 05012KT P6SM FEW025 BKN045
     FM270300 VRB05KT P6SM SCT040
      TEMPO 2708/2712 2SM BR
     FM271400 16007KT P6SM SCT040=



000
FTUS43 KILX 262359 AAA
TAFPIA
TAF AMD
KPIA 262359Z 2700/2724 06007KT P6SM FEW030 BKN035
     FM270200 VRB05KT P6SM SCT050
      TEMPO 2708/2712 2SM BR
     FM271400 16007KT P6SM SCT050=



000
FTUS43 KILX 262359 AAA
TAFPIA
TAF AMD
KPIA 262359Z 2700/2724 06007KT P6SM FEW030 BKN035
     FM270200 VRB05KT P6SM SCT050
      TEMPO 2708/2712 2SM BR
     FM271400 16007KT P6SM SCT050=



000
FTUS43 KILX 262338
TAFBMI
TAF
KBMI 262338Z 2700/2724 03011KT P6SM VCTS FEW015CB SCT070
      TEMPO 2700/2701 BKN025CB
     FM270100 VRB05KT P6SM SCT040
      TEMPO 2708/2712 2SM BR
     FM271400 16007KT P6SM SCT040=



000
FTUS43 KILX 262338
TAFPIA
TAF
KPIA 262338Z 2700/2724 02009KT P6SM SCT060
     FM270200 VRB05KT P6SM SCT050
      TEMPO 2708/2712 2SM BR
     FM271400 16007KT P6SM SCT050=



000
FTUS43 KILX 262338
TAFSPI
TAF
KSPI 262338Z 2700/2724 19008KT P6SM BKN045
     FM270200 VRB04KT P6SM SCT050
      TEMPO 2708/2712 1SM BR
     FM271400 16007KT P6SM SCT050=



000
FTUS43 KILX 262338
TAFCMI
TAF
KCMI 262338Z 2700/2724 22006KT P6SM VCTS SCT015CB SCT110
     FM270300 VRB05KT P6SM SCT040
      TEMPO 2708/2712 1SM BR
     FM271400 15007KT P6SM SCT040=



000
FTUS43 KILX 262338
TAFDEC
TAF
KDEC 262338Z 2700/2724 22007KT P6SM SCT060 BKN080
     FM270200 VRB04KT P6SM SCT050
      TEMPO 2708/2712 1SM BR
     FM271400 16007KT P6SM SCT050=



000
FTUS43 KILX 262038 AAA
TAFCMI
TAF AMD
KCMI 262038Z 2621/2718 21005KT P6SM VCTS SCT015CB BKN120
     FM270300 VRB05KT P6SM SCT040
      TEMPO 2708/2712 4SM BR
     FM271400 15007KT P6SM SCT040=



000
FTUS43 KILX 262038 AAA
TAFDEC
TAF AMD
KDEC 262038Z 2621/2718 21005KT P6SM SCT025 BKN120
     FM270200 VRB04KT P6SM SCT050
      TEMPO 2708/2712 4SM BR
     FM271400 16007KT P6SM SCT050=



000
FTUS43 KILX 262037 AAA
TAFSPI
TAF AMD
KSPI 262037Z 2621/2718 16005KT P6SM SCT025 BKN120
     FM270200 VRB04KT P6SM SCT050
      TEMPO 2708/2712 4SM BR
     FM271400 16007KT P6SM SCT050=



000
FTUS43 KILX 262037 AAA
TAFSPI
TAF AMD
KSPI 262037Z 2621/2718 16005KT P6SM SCT025 BKN120
     FM270200 VRB04KT P6SM SCT050
      TEMPO 2708/2712 4SM BR
     FM271400 16007KT P6SM SCT050=



000
FTUS43 KILX 262036 AAA
TAFBMI
TAF AMD
KBMI 262036Z 2621/2718 19005KT P6SM VCTS SCT015CB BKN120
     FM270300 VRB05KT P6SM SCT040
      TEMPO 2708/2712 4SM BR
     FM271400 16007KT P6SM SCT040=



000
FTUS43 KILX 262036 AAA
TAFBMI
TAF AMD
KBMI 262036Z 2621/2718 19005KT P6SM VCTS SCT015CB BKN120
     FM270300 VRB05KT P6SM SCT040
      TEMPO 2708/2712 4SM BR
     FM271400 16007KT P6SM SCT040=



000
FTUS43 KILX 262035 AAA
TAFPIA
TAF AMD
KPIA 262035Z 2621/2718 VRB05KT P6SM VCTS SCT025CB BKN050
     FM270200 VRB05KT P6SM SCT050
      TEMPO 2708/2712 4SM BR
     FM271400 16007KT P6SM SCT050=



    US Dept of Commerce
    National Oceanic and Atmospheric Administration
    National Weather Service
    1325 East West Highway
    Silver Spring, MD 20910
    Page Author: NWS Internet Services Team
Disclaimer
Information Quality
Credits
Glossary
Privacy Policy
Freedom of Information Act (FOIA)
About Us
Career Opportunities